sensor_id;sensor_type;location;lat;lon;timestamp;pressure;altitude;pressure_sealevel;temperature;humidity
60820;BME280;46641;48.904;9.126;2022-10-22T06:55:25;98527.03;;;18.47;62.11
60820;BME280;46641;48.904;9.126;2022-10-22T07:00:15;98525.81;;;18.50;62.25
60820;BME280;46641;48.904;9.126;2022-10-22T07:05:06;98537.84;;;18.52;61.79
60820;BME280;46641;48.904;9.126;2022-10-22T07:09:57;98545.78;;;18.52;62.13
60820;BME280;46641;48.904;9.126;2022-10-22T07:14:48;98550.88;;;18.47;61.54
60820;BME280;46641;48.904;9.126;2022-10-22T07:19:38;98560.00;;;18.38;61.74
60820;BME280;46641;48.904;9.126;2022-10-22T07:24:28;98569.66;;;17.83;63.64
60820;BME280;46641;48.904;9.126;2022-10-22T07:29:19;98573.56;;;18.21;62.74
60820;BME280;46641;48.904;9.126;2022-10-22T07:34:09;98572.63;;;18.36;62.08
60820;BME280;46641;48.904;9.126;2022-10-22T07:39:00;98575.75;;;18.46;61.68
60820;BME280;46641;48.904;9.126;2022-10-22T07:43:50;98574.13;;;18.52;61.41
60820;BME280;46641;48.904;9.126;2022-10-22T07:48:41;98572.28;;;18.52;61.62
60820;BME280;46641;48.904;9.126;2022-10-22T07:53:31;98583.94;;;18.58;61.48
60820;BME280;46641;48.904;9.126;2022-10-22T07:58:22;98585.56;;;18.59;61.36
60820;BME280;46641;48.904;9.126;2022-10-22T08:03:14;98588.69;;;18.62;61.43
60820;BME280;46641;48.904;9.126;2022-10-22T08:08:05;98594.59;;;18.64;61.45
60820;BME280;46641;48.904;9.126;2022-10-22T08:12:56;98588.47;;;18.64;61.43
60820;BME280;46641;48.904;9.126;2022-10-22T08:17:47;98597.25;;;18.64;61.43
60820;BME280;46641;48.904;9.126;2022-10-22T08:22:37;98589.19;;;18.10;63.77
60820;BME280;46641;48.904;9.126;2022-10-22T08:27:27;98589.59;;;18.41;62.58
60820;BME280;46641;48.904;9.126;2022-10-22T08:32:18;98597.41;;;18.56;62.55
60820;BME280;46641;48.904;9.126;2022-10-22T08:37:08;98601.53;;;18.65;61.88
60820;BME280;46641;48.904;9.126;2022-10-22T08:42:31;98599.50;;;18.67;61.86
60820;BME280;46641;48.904;9.126;2022-10-22T08:47:37;98601.41;;;18.74;61.68
60820;BME280;46641;48.904;9.126;2022-10-22T08:52:31;98607.13;;;18.77;61.76
60820;BME280;46641;48.904;9.126;2022-10-22T09:07:51;98605.13;;;18.86;61.83
60820;BME280;46641;48.904;9.126;2022-10-22T09:12:42;98610.84;;;18.89;62.05
60820;BME280;46641;48.904;9.126;2022-10-22T09:17:48;98606.59;;;18.95;62.10
60820;BME280;46641;48.904;9.126;2022-10-22T09:22:51;98605.38;;;19.04;61.97
60820;BME280;46641;48.904;9.126;2022-10-22T09:27:45;98604.78;;;19.02;62.38
60820;BME280;46641;48.904;9.126;2022-10-22T09:32:36;98613.56;;;19.09;61.92
60820;BME280;46641;48.904;9.126;2022-10-22T09:37:28;98621.38;;;19.24;62.67
60820;BME280;46641;48.904;9.126;2022-10-22T09:42:19;98626.28;;;19.34;62.05
60820;BME280;46641;48.904;9.126;2022-10-22T09:47:28;98646.13;;;19.51;61.55
60820;BME280;46641;48.904;9.126;2022-10-22T09:52:26;98644.34;;;19.65;61.23
60820;BME280;46641;48.904;9.126;2022-10-22T09:57:23;98644.56;;;19.70;61.22
60820;BME280;46641;48.904;9.126;2022-10-22T10:02:22;98650.47;;;19.79;61.96
60820;BME280;46641;48.904;9.126;2022-10-22T10:07:17;98652.66;;;19.49;64.54
60820;BME280;46641;48.904;9.126;2022-10-22T10:22:43;98682.53;;;20.57;61.85
60820;BME280;46641;48.904;9.126;2022-10-22T10:27:39;98678.03;;;20.71;61.80
60820;BME280;46641;48.904;9.126;2022-10-22T10:37:45;98683.91;;;20.99;61.30
60820;BME280;46641;48.904;9.126;2022-10-22T10:42:52;98688.53;;;21.11;61.11
60820;BME280;46641;48.904;9.126;2022-10-22T10:58:20;98686.56;;;21.44;60.85
60820;BME280;46641;48.904;9.126;2022-10-22T11:03:31;98681.63;;;21.55;60.70
60820;BME280;46641;48.904;9.126;2022-10-22T11:08:31;98683.59;;;21.66;60.57
60820;BME280;46641;48.904;9.126;2022-10-22T11:13:38;98677.78;;;21.76;60.66
60820;BME280;46641;48.904;9.126;2022-10-22T11:18:59;98673.44;;;21.81;60.66
60820;BME280;46641;48.904;9.126;2022-10-22T11:24:04;98669.25;;;21.92;60.40
60820;BME280;46641;48.904;9.126;2022-10-22T11:29:00;98675.59;;;21.98;61.08
60820;BME280;46641;48.904;9.126;2022-10-22T11:34:32;98669.75;;;22.07;60.44
60820;BME280;46641;48.904;9.126;2022-10-22T11:39:43;98672.16;;;22.15;60.30
60820;BME280;46641;48.904;9.126;2022-10-22T11:44:48;98670.06;;;22.24;60.11
60820;BME280;46641;48.904;9.126;2022-10-22T11:50:21;98666.28;;;22.32;60.25
60820;BME280;46641;48.904;9.126;2022-10-22T11:55:48;98663.13;;;22.42;60.11
60820;BME280;46641;48.904;9.126;2022-10-22T12:00:40;98655.28;;;22.47;60.71
60820;BME280;46641;48.904;9.126;2022-10-22T12:05:35;98664.63;;;22.56;60.45
60820;BME280;46641;48.904;9.126;2022-10-22T12:10:29;98663.88;;;22.67;60.03
60820;BME280;46641;48.904;9.126;2022-10-22T12:15:25;98661.94;;;22.74;59.71
60820;BME280;46641;48.904;9.126;2022-10-22T12:20:16;98655.59;;;22.75;58.95
60820;BME280;46641;48.904;9.126;2022-10-22T12:25:20;98649.06;;;22.71;58.62
60820;BME280;46641;48.904;9.126;2022-10-22T12:35:17;98639.56;;;22.57;58.68
60820;BME280;46641;48.904;9.126;2022-10-22T12:40:23;98640.63;;;22.56;58.25
60820;BME280;46641;48.904;9.126;2022-10-22T12:45:14;98635.28;;;22.56;58.99
60820;BME280;46641;48.904;9.126;2022-10-22T12:50:05;98634.25;;;22.57;58.81
60820;BME280;46641;48.904;9.126;2022-10-22T12:54:55;98632.75;;;22.61;58.76
60820;BME280;46641;48.904;9.126;2022-10-22T12:59:48;98635.59;;;22.66;58.49
60820;BME280;46641;48.904;9.126;2022-10-22T13:04:40;98631.06;;;22.67;58.68
60820;BME280;46641;48.904;9.126;2022-10-22T13:10:14;98634.91;;;22.71;57.90
60820;BME280;46641;48.904;9.126;2022-10-22T13:20:21;98634.38;;;22.80;58.00
60820;BME280;46641;48.904;9.126;2022-10-22T13:30:09;98627.53;;;22.84;57.76
60820;BME280;46641;48.904;9.126;2022-10-22T13:35:11;98633.28;;;22.88;58.45
60820;BME280;46641;48.904;9.126;2022-10-22T13:40:10;98622.97;;;22.92;57.31
60820;BME280;46641;48.904;9.126;2022-10-22T13:45:01;98619.88;;;22.95;58.63
60820;BME280;46641;48.904;9.126;2022-10-22T13:49:52;98615.13;;;22.97;58.03
60820;BME280;46641;48.904;9.126;2022-10-22T13:54:44;98614.31;;;22.59;59.60
60820;BME280;46641;48.904;9.126;2022-10-22T13:59:34;98613.50;;;22.96;58.72
60820;BME280;46641;48.904;9.126;2022-10-22T14:04:25;98613.69;;;23.13;57.76
60820;BME280;46641;48.904;9.126;2022-10-22T14:09:20;98620.63;;;23.14;56.90
60820;BME280;46641;48.904;9.126;2022-10-22T14:14:11;98626.81;;;23.14;57.94
60820;BME280;46641;48.904;9.126;2022-10-22T14:19:05;98621.03;;;23.17;57.44
60820;BME280;46641;48.904;9.126;2022-10-22T14:23:56;98615.44;;;23.19;57.74
60820;BME280;46641;48.904;9.126;2022-10-22T14:28:47;98616.03;;;23.21;57.72
60820;BME280;46641;48.904;9.126;2022-10-22T14:33:38;98614.53;;;23.25;57.56
60820;BME280;46641;48.904;9.126;2022-10-22T14:38:28;98609.56;;;23.28;57.14
60820;BME280;46641;48.904;9.126;2022-10-22T14:43:24;98614.56;;;23.37;56.97
60820;BME280;46641;48.904;9.126;2022-10-22T14:48:15;98605.88;;;23.41;57.21
60820;BME280;46641;48.904;9.126;2022-10-22T14:53:05;98609.97;;;23.44;57.41
60820;BME280;46641;48.904;9.126;2022-10-22T14:57:55;98615.66;;;23.47;57.05
60820;BME280;46641;48.904;9.126;2022-10-22T15:02:47;98622.63;;;23.48;57.12
60820;BME280;46641;48.904;9.126;2022-10-22T15:07:37;98622.88;;;23.47;57.25
60820;BME280;46641;48.904;9.126;2022-10-22T15:12:28;98632.50;;;23.48;57.62
60820;BME280;46641;48.904;9.126;2022-10-22T15:17:18;98623.88;;;23.46;57.34
60820;BME280;46641;48.904;9.126;2022-10-22T15:22:12;98626.81;;;23.44;56.88
60820;BME280;46641;48.904;9.126;2022-10-22T15:27:03;98625.41;;;23.42;57.54
60820;BME280;46641;48.904;9.126;2022-10-22T15:31:55;98624.34;;;23.43;57.43
60820;BME280;46641;48.904;9.126;2022-10-22T15:36:50;98625.19;;;23.43;57.44
60820;BME280;46641;48.904;9.126;2022-10-22T15:41:40;98621.47;;;23.44;57.79
60820;BME280;46641;48.904;9.126;2022-10-22T15:46:31;98632.72;;;23.46;57.24
60820;BME280;46641;48.904;9.126;2022-10-22T15:51:22;98629.03;;;23.47;56.93
60820;BME280;46641;48.904;9.126;2022-10-22T15:56:12;98630.88;;;23.47;56.91
60820;BME280;46641;48.904;9.126;2022-10-22T16:01:11;98627.25;;;23.41;56.41
60820;BME280;46641;48.904;9.126;2022-10-22T16:06:02;98629.34;;;23.39;57.20
60820;BME280;46641;48.904;9.126;2022-10-22T16:10:53;98628.97;;;23.36;56.91
60820;BME280;46641;48.904;9.126;2022-10-22T16:15:43;98633.97;;;23.32;57.10
60820;BME280;46641;48.904;9.126;2022-10-22T16:20:40;98627.44;;;23.28;56.37
60820;BME280;46641;48.904;9.126;2022-10-22T16:25:39;98631.38;;;23.25;55.96
60820;BME280;46641;48.904;9.126;2022-10-22T16:30:34;98634.94;;;23.19;56.38
60820;BME280;46641;48.904;9.126;2022-10-22T16:35:24;98626.81;;;23.14;56.72
60820;BME280;46641;48.904;9.126;2022-10-22T16:40:14;98629.34;;;23.09;56.59
60820;BME280;46641;48.904;9.126;2022-10-22T16:45:05;98638.84;;;23.05;56.67
60820;BME280;46641;48.904;9.126;2022-10-22T16:49:55;98650.41;;;22.99;56.75
60820;BME280;46641;48.904;9.126;2022-10-22T16:54:48;98652.13;;;22.93;56.25
60820;BME280;46641;48.904;9.126;2022-10-22T16:59:38;98647.66;;;22.87;56.47
60820;BME280;46641;48.904;9.126;2022-10-22T17:04:28;98647.50;;;22.82;56.43
60820;BME280;46641;48.904;9.126;2022-10-22T17:09:19;98653.50;;;22.77;56.45
60820;BME280;46641;48.904;9.126;2022-10-22T17:14:09;98656.84;;;22.73;56.14
60820;BME280;46641;48.904;9.126;2022-10-22T17:19:01;98656.69;;;22.68;55.91
60820;BME280;46641;48.904;9.126;2022-10-22T17:23:53;98653.28;;;22.60;56.08
60820;BME280;46641;48.904;9.126;2022-10-22T17:28:45;98659.88;;;22.58;55.97
60820;BME280;46641;48.904;9.126;2022-10-22T17:33:35;98672.25;;;22.52;56.46
60820;BME280;46641;48.904;9.126;2022-10-22T17:38:26;98675.56;;;22.48;56.13
60820;BME280;46641;48.904;9.126;2022-10-22T17:43:17;98682.16;;;22.45;56.39
60820;BME280;46641;48.904;9.126;2022-10-22T17:48:07;98680.97;;;22.41;56.18
60820;BME280;46641;48.904;9.126;2022-10-22T17:52:57;98691.50;;;22.36;56.18
60820;BME280;46641;48.904;9.126;2022-10-22T17:57:48;98692.13;;;22.31;56.09
60820;BME280;46641;48.904;9.126;2022-10-22T18:02:38;98690.72;;;22.29;55.73
60820;BME280;46641;48.904;9.126;2022-10-22T18:07:29;98699.16;;;22.26;56.33
60820;BME280;46641;48.904;9.126;2022-10-22T18:12:19;98697.97;;;22.22;55.79
60820;BME280;46641;48.904;9.126;2022-10-22T18:17:11;98695.97;;;22.17;55.92
60820;BME280;46641;48.904;9.126;2022-10-22T18:22:02;98682.44;;;22.12;55.99
60820;BME280;46641;48.904;9.126;2022-10-22T18:26:53;98684.94;;;22.07;56.12
60820;BME280;46641;48.904;9.126;2022-10-22T18:31:43;98692.75;;;22.02;56.20
60820;BME280;46641;48.904;9.126;2022-10-22T18:36:35;98686.44;;;21.96;56.17
60820;BME280;46641;48.904;9.126;2022-10-22T18:41:27;98684.06;;;21.88;56.45
60820;BME280;46641;48.904;9.126;2022-10-22T18:46:18;98686.34;;;21.84;56.52
60820;BME280;46641;48.904;9.126;2022-10-22T18:51:09;98679.78;;;21.80;56.51
60820;BME280;46641;48.904;9.126;2022-10-22T18:56:00;98682.50;;;21.74;56.55
60820;BME280;46641;48.904;9.126;2022-10-22T19:00:50;98683.59;;;21.66;56.64
60820;BME280;46641;48.904;9.126;2022-10-22T19:05:44;98676.03;;;21.63;56.63
60820;BME280;46641;48.904;9.126;2022-10-22T19:10:35;98669.69;;;21.57;56.67
60820;BME280;46641;48.904;9.126;2022-10-22T19:15:25;98676.72;;;21.52;56.76
60820;BME280;46641;48.904;9.126;2022-10-22T19:20:15;98683.72;;;21.46;56.70
60820;BME280;46641;48.904;9.126;2022-10-22T19:25:06;98682.69;;;21.40;56.88
60820;BME280;46641;48.904;9.126;2022-10-22T19:29:57;98687.03;;;21.35;57.10
60820;BME280;46641;48.904;9.126;2022-10-22T19:34:47;98684.97;;;21.30;57.08
60820;BME280;46641;48.904;9.126;2022-10-22T19:39:37;98679.25;;;21.27;57.00
60820;BME280;46641;48.904;9.126;2022-10-22T19:44:28;98671.91;;;21.22;57.27
60820;BME280;46641;48.904;9.126;2022-10-22T19:49:18;98677.69;;;21.19;57.18
60820;BME280;46641;48.904;9.126;2022-10-22T19:54:11;98671.13;;;21.15;56.98
60820;BME280;46641;48.904;9.126;2022-10-22T19:59:07;98666.22;;;21.12;57.30
60820;BME280;46641;48.904;9.126;2022-10-22T20:03:57;98678.94;;;21.10;57.20
60820;BME280;46641;48.904;9.126;2022-10-22T20:08:49;98683.03;;;21.06;57.26
60820;BME280;46641;48.904;9.126;2022-10-22T20:13:39;98689.38;;;21.05;57.12
60820;BME280;46641;48.904;9.126;2022-10-22T20:18:30;98695.94;;;21.02;57.14
60820;BME280;46641;48.904;9.126;2022-10-22T20:23:23;98692.28;;;20.96;57.08
60820;BME280;46641;48.904;9.126;2022-10-22T20:28:14;98690.63;;;20.95;57.19
60820;BME280;46641;48.904;9.126;2022-10-22T20:33:04;98693.72;;;20.92;57.23
60820;BME280;46641;48.904;9.126;2022-10-22T20:37:54;98703.16;;;20.88;57.22
60820;BME280;46641;48.904;9.126;2022-10-22T20:42:44;98700.91;;;20.85;57.19
60820;BME280;46641;48.904;9.126;2022-10-22T20:47:36;98707.25;;;20.84;57.30
60820;BME280;46641;48.904;9.126;2022-10-22T20:52:26;98700.72;;;20.80;57.38
60820;BME280;46641;48.904;9.126;2022-10-22T20:57:17;98701.97;;;20.77;57.24
60820;BME280;46641;48.904;9.126;2022-10-22T21:02:08;98696.03;;;20.75;57.46
60820;BME280;46641;48.904;9.126;2022-10-22T21:06:59;98683.13;;;20.72;57.31
60820;BME280;46641;48.904;9.126;2022-10-22T21:11:50;98682.97;;;20.67;57.35
60820;BME280;46641;48.904;9.126;2022-10-22T21:16:44;98684.19;;;20.65;57.47
60820;BME280;46641;48.904;9.126;2022-10-22T21:21:34;98681.72;;;20.63;57.44
60820;BME280;46641;48.904;9.126;2022-10-22T21:26:25;98681.13;;;20.61;57.42
60820;BME280;46641;48.904;9.126;2022-10-22T21:31:16;98679.88;;;20.57;57.62
60820;BME280;46641;48.904;9.126;2022-10-22T21:36:10;98685.84;;;20.52;57.50
60820;BME280;46641;48.904;9.126;2022-10-22T21:41:09;98677.22;;;20.50;57.07
60820;BME280;46641;48.904;9.126;2022-10-22T21:46:12;98681.94;;;20.48;57.20
60820;BME280;46641;48.904;9.126;2022-10-22T21:51:23;98683.38;;;20.44;57.66
60820;BME280;46641;48.904;9.126;2022-10-22T21:56:20;98683.38;;;20.44;57.42
60820;BME280;46641;48.904;9.126;2022-10-22T22:01:11;98686.44;;;20.41;57.62
60820;BME280;46641;48.904;9.126;2022-10-22T22:06:04;98680.09;;;20.36;57.76
60820;BME280;46641;48.904;9.126;2022-10-22T22:11:07;98678.47;;;20.35;57.32
60820;BME280;46641;48.904;9.126;2022-10-22T22:16:04;98682.38;;;20.32;57.64
60820;BME280;46641;48.904;9.126;2022-10-22T22:20:55;98684.41;;;20.30;57.86
60820;BME280;46641;48.904;9.126;2022-10-22T22:25:45;98694.44;;;20.28;58.00
60820;BME280;46641;48.904;9.126;2022-10-22T22:30:35;98694.84;;;20.25;57.94
60820;BME280;46641;48.904;9.126;2022-10-22T22:35:26;98690.34;;;20.19;57.92
60820;BME280;46641;48.904;9.126;2022-10-22T22:40:16;98699.94;;;20.20;57.75
60820;BME280;46641;48.904;9.126;2022-10-22T22:45:06;98702.19;;;20.16;58.13
60820;BME280;46641;48.904;9.126;2022-10-22T22:49:57;98697.91;;;20.15;57.93
60820;BME280;46641;48.904;9.126;2022-10-22T22:54:47;98681.75;;;20.10;58.08
60820;BME280;46641;48.904;9.126;2022-10-22T22:59:37;98683.19;;;20.06;58.18
60820;BME280;46641;48.904;9.126;2022-10-22T23:04:28;98679.72;;;20.05;58.20
60820;BME280;46641;48.904;9.126;2022-10-22T23:09:19;98676.84;;;20.00;58.20
60820;BME280;46641;48.904;9.126;2022-10-22T23:14:11;98667.84;;;19.95;58.20
60820;BME280;46641;48.904;9.126;2022-10-22T23:19:04;98663.56;;;19.94;58.24
60820;BME280;46641;48.904;9.126;2022-10-22T23:23:56;98657.84;;;19.90;58.14
60820;BME280;46641;48.904;9.126;2022-10-22T23:28:47;98653.56;;;19.89;58.42
60820;BME280;46641;48.904;9.126;2022-10-22T23:33:38;98652.53;;;19.83;58.49
60820;BME280;46641;48.904;9.126;2022-10-22T23:38:28;98657.63;;;19.85;58.04
60820;BME280;46641;48.904;9.126;2022-10-22T23:43:19;98655.78;;;19.79;58.25
60820;BME280;46641;48.904;9.126;2022-10-22T23:48:09;98649.25;;;19.75;58.38
60820;BME280;46641;48.904;9.126;2022-10-22T23:53:00;98641.50;;;19.73;58.41
60820;BME280;46641;48.904;9.126;2022-10-22T23:57:50;98630.47;;;19.70;58.21
